Time,TemperatureF,DewpointF,PressureIn,WindDirection,WindDirectionDegrees,WindSpeedMPH,WindSpeedGustMPH,Humidity,HourlyPrecipIn,Conditions,Clouds,dailyrainin,SolarRadiationWatts/m^2,SoftwareType,DateUTC
2013-02-18 00:01:00,17.0,15.0,-100.00,South,179,5.0,5.0,90,0.00,,,0.00,0.000000,,2013-02-18 08:01:00,
2013-02-18 00:11:00,17.0,15.0,-100.00,South,179,5.0,5.0,90,0.00,,,0.00,0.000000,,2013-02-18 08:11:00,
2013-02-18 00:21:00,17.0,15.0,-100.00,South,179,5.0,5.0,90,0.00,,,0.00,0.000000,,2013-02-18 08:21:00,
2013-02-18 00:52:00,16.0,13.0,-100.00,South,187,5.0,8.0,87,0.00,,,0.00,0.000000,,2013-02-18 08:52:00,
2013-02-18 01:02:00,16.0,13.0,-100.00,South,187,5.0,8.0,87,0.00,,,0.00,0.000000,,2013-02-18 09:02:00,
2013-02-18 01:11:00,16.0,13.0,-100.00,South,187,5.0,8.0,87,0.00,,,0.00,0.000000,,2013-02-18 09:11:00,
2013-02-18 01:22:00,16.0,13.0,-100.00,South,187,5.0,8.0,87,0.00,,,0.00,0.000000,,2013-02-18 09:22:00,
2013-02-18 01:52:00,15.0,12.0,-100.00,SSE,162,4.0,8.0,87,0.00,,,0.00,0.000000,,2013-02-18 09:52:00,
2013-02-18 02:01:00,15.0,12.0,-100.00,SSE,162,4.0,8.0,87,0.00,,,0.00,0.000000,,2013-02-18 10:01:00,
2013-02-18 02:11:00,15.0,12.0,-100.00,SSE,162,4.0,8.0,87,0.00,,,0.00,0.000000,,2013-02-18 10:11:00,
2013-02-18 02:21:00,15.0,12.0,-100.00,SSE,162,4.0,8.0,87,0.00,,,0.00,0.000000,,2013-02-18 10:21:00,
2013-02-18 02:52:00,13.0,10.0,-100.00,SSE,167,5.0,6.0,88,0.00,,,0.00,0.000000,,2013-02-18 10:52:00,
2013-02-18 03:01:00,13.0,10.0,-100.00,SSE,167,5.0,6.0,88,0.00,,,0.00,0.000000,,2013-02-18 11:01:00,
2013-02-18 03:11:00,13.0,10.0,-100.00,SSE,167,5.0,6.0,88,0.00,,,0.00,0.000000,,2013-02-18 11:11:00,
2013-02-18 03:21:00,13.0,10.0,-100.00,SSE,167,5.0,6.0,88,0.00,,,0.00,0.000000,,2013-02-18 11:21:00,
2013-02-18 03:53:00,12.0,8.0,-100.00,SSW,204,7.0,7.0,84,0.00,,,0.00,0.000000,,2013-02-18 11:53:00,
2013-02-18 04:02:00,12.0,8.0,-100.00,SSW,204,7.0,7.0,84,0.00,,,0.00,0.000000,,2013-02-18 12:02:00,
2013-02-18 04:11:00,12.0,8.0,-100.00,SSW,204,7.0,7.0,84,0.00,,,0.00,0.000000,,2013-02-18 12:11:00,
2013-02-18 04:21:00,12.0,8.0,-100.00,SSW,204,7.0,7.0,84,0.00,,,0.00,0.000000,,2013-02-18 12:21:00,
2013-02-18 04:53:00,12.0,9.0,-100.00,South,183,5.0,12.0,88,0.00,,,0.00,0.000000,,2013-02-18 12:53:00,
2013-02-18 05:02:00,12.0,9.0,-100.00,South,183,5.0,12.0,88,0.00,,,0.00,0.000000,,2013-02-18 13:02:00,
2013-02-18 05:11:00,12.0,9.0,-100.00,South,183,5.0,12.0,88,0.00,,,0.00,0.000000,,2013-02-18 13:11:00,
2013-02-18 05:22:00,12.0,9.0,-100.00,South,183,5.0,12.0,88,0.00,,,0.00,0.000000,,2013-02-18 13:22:00,
2013-02-18 05:53:00,11.0,7.0,-100.00,South,172,9.0,9.0,83,0.00,,,0.00,0.000000,,2013-02-18 13:53:00,
2013-02-18 06:02:00,11.0,7.0,-100.00,South,172,9.0,9.0,83,0.00,,,0.00,0.000000,,2013-02-18 14:02:00,
2013-02-18 06:11:00,11.0,7.0,-100.00,South,172,9.0,9.0,83,0.00,,,0.00,0.000000,,2013-02-18 14:11:00,
2013-02-18 06:21:00,11.0,7.0,-100.00,South,172,9.0,9.0,83,0.00,,,0.00,0.000000,,2013-02-18 14:21:00,
2013-02-18 06:53:00,13.0,10.0,-100.00,South,183,3.0,15.0,87,0.00,,,-99.99,0.000000,,2013-02-18 14:53:00,
2013-02-18 07:02:00,13.0,10.0,-100.00,South,183,3.0,15.0,87,0.00,,,-99.99,0.000000,,2013-02-18 15:02:00,
2013-02-18 07:11:00,13.0,10.0,-100.00,South,183,3.0,15.0,87,0.00,,,-99.99,0.000000,,2013-02-18 15:11:00,
2013-02-18 07:21:00,13.0,10.0,-100.00,South,183,3.0,15.0,87,0.00,,,-99.99,0.000000,,2013-02-18 15:21:00,
2013-02-18 07:52:00,9.0,4.0,-100.00,South,176,9.0,15.0,80,0.00,,,0.00,0.000000,,2013-02-18 15:52:00,
2013-02-18 08:02:00,9.0,4.0,-100.00,South,176,9.0,15.0,80,0.00,,,0.00,0.000000,,2013-02-18 16:02:00,
2013-02-18 08:11:00,9.0,4.0,-100.00,South,176,9.0,15.0,80,0.00,,,0.00,0.000000,,2013-02-18 16:11:00,
2013-02-18 08:21:00,9.0,4.0,-100.00,South,176,9.0,15.0,80,0.00,,,0.00,0.000000,,2013-02-18 16:21:00,
2013-02-18 08:53:00,15.0,3.0,-100.00,SSE,165,5.0,12.0,59,0.00,,,0.00,6.000000,,2013-02-18 16:53:00,
2013-02-18 09:03:00,15.0,3.0,-100.00,SSE,165,5.0,12.0,59,0.00,,,0.00,6.000000,,2013-02-18 17:03:00,
2013-02-18 09:11:00,15.0,3.0,-100.00,SSE,165,5.0,12.0,59,0.00,,,0.00,6.000000,,2013-02-18 17:11:00,
2013-02-18 09:21:00,15.0,3.0,-100.00,SSE,165,5.0,12.0,59,0.00,,,0.00,6.000000,,2013-02-18 17:21:00,
2013-02-18 09:53:00,24.0,7.0,-100.00,SSE,157,4.0,12.0,47,-99.99,,,0.00,171.000000,,2013-02-18 17:53:00,
2013-02-18 10:02:00,24.0,7.0,-100.00,SSE,157,4.0,12.0,47,-99.99,,,0.00,171.000000,,2013-02-18 18:02:00,
2013-02-18 10:11:00,24.0,7.0,-100.00,SSE,157,4.0,12.0,47,-99.99,,,0.00,171.000000,,2013-02-18 18:11:00,
2013-02-18 10:22:00,24.0,7.0,-100.00,SSE,157,4.0,12.0,47,-99.99,,,0.00,171.000000,,2013-02-18 18:22:00,
2013-02-18 10:53:00,33.0,8.0,-100.00,North,10,2.0,8.0,34,0.00,,,0.00,402.000000,,2013-02-18 18:53:00,
2013-02-18 11:02:00,33.0,8.0,-100.00,North,10,2.0,8.0,34,0.00,,,0.00,402.000000,,2013-02-18 19:02:00,
2013-02-18 11:12:00,33.0,8.0,-100.00,North,10,2.0,8.0,34,0.00,,,0.00,402.000000,,2013-02-18 19:12:00,
2013-02-18 11:21:00,33.0,8.0,-100.00,North,10,2.0,8.0,34,0.00,,,0.00,402.000000,,2013-02-18 19:21:00,
2013-02-18 11:53:00,39.0,-2.0,-100.00,South,184,8.0,8.0,17,0.00,,,0.00,648.000000,,2013-02-18 19:53:00,
2013-02-18 12:02:00,39.0,-2.0,-100.00,South,184,8.0,8.0,17,0.00,,,0.00,648.000000,,2013-02-18 20:02:00,
2013-02-18 12:53:00,43.0,-10.0,-100.00,SW,222,1.0,11.0,10,0.00,,,0.00,677.000000,,2013-02-18 20:53:00,
2013-02-18 13:02:00,43.0,-10.0,-100.00,SW,222,1.0,11.0,10,0.00,,,0.00,677.000000,,2013-02-18 21:02:00,
2013-02-18 13:53:00,52.0,3.0,-100.00,SW,233,3.0,10.0,13,0.00,,,0.00,722.000000,,2013-02-18 21:53:00,
2013-02-18 14:02:00,52.0,3.0,-100.00,SW,233,3.0,10.0,13,0.00,,,0.00,722.000000,,2013-02-18 22:02:00,
2013-02-18 14:53:00,51.0,9.0,-100.00,SSW,200,6.0,7.0,18,-99.99,,,0.00,881.000000,,2013-02-18 22:53:00,
2013-02-18 15:02:00,51.0,9.0,-100.00,SSW,200,6.0,7.0,18,-99.99,,,0.00,881.000000,,2013-02-18 23:02:00,
2013-02-18 15:53:00,48.0,13.0,-100.00,South,170,8.0,12.0,24,-99.99,,,0.00,791.000000,,2013-02-18 23:53:00,
2013-02-18 16:02:00,48.0,13.0,-100.00,South,170,8.0,12.0,24,-99.99,,,0.00,791.000000,,2013-02-19 00:02:00,
2013-02-18 16:12:00,48.0,13.0,-100.00,South,170,8.0,12.0,24,-99.99,,,0.00,791.000000,,2013-02-19 00:12:00,
2013-02-18 16:22:00,48.0,13.0,-100.00,South,170,8.0,12.0,24,-99.99,,,0.00,791.000000,,2013-02-19 00:22:00,
2013-02-18 16:54:00,46.0,24.0,-100.00,SSW,193,6.0,17.0,42,0.00,,,0.00,597.000000,,2013-02-19 00:54:00,
2013-02-18 17:03:00,46.0,24.0,-100.00,SSW,193,6.0,17.0,42,0.00,,,0.00,597.000000,,2013-02-19 01:03:00,
2013-02-18 17:55:00,39.0,20.0,-100.00,South,179,9.0,14.0,46,-99.99,,,0.00,414.000000,,2013-02-19 01:55:00,
2013-02-18 18:02:00,39.0,20.0,-100.00,South,179,9.0,14.0,46,-99.99,,,0.00,414.000000,,2013-02-19 02:02:00,
2013-02-18 18:12:00,39.0,20.0,-100.00,South,179,9.0,14.0,46,-99.99,,,0.00,414.000000,,2013-02-19 02:12:00,
2013-02-18 18:22:00,39.0,20.0,-100.00,South,179,9.0,14.0,46,-99.99,,,0.00,414.000000,,2013-02-19 02:22:00,
2013-02-18 18:54:00,36.0,19.0,-100.00,SSW,210,9.0,14.0,50,0.00,,,0.00,177.000000,,2013-02-19 02:54:00,
2013-02-18 19:04:00,36.0,19.0,-100.00,SSW,210,9.0,14.0,50,0.00,,,0.00,177.000000,,2013-02-19 03:04:00,
2013-02-18 19:22:00,36.0,19.0,-100.00,SSW,210,9.0,14.0,50,0.00,,,0.00,177.000000,,2013-02-19 03:22:00,
2013-02-18 19:54:00,34.0,12.0,-100.00,SSW,207,11.0,18.0,40,0.00,,,0.00,19.000000,,2013-02-19 03:54:00,
2013-02-18 20:02:00,34.0,12.0,-100.00,SSW,207,11.0,18.0,40,0.00,,,0.00,19.000000,,2013-02-19 04:02:00,
2013-02-18 20:13:00,34.0,12.0,-100.00,SSW,207,11.0,18.0,40,0.00,,,0.00,19.000000,,2013-02-19 04:13:00,
2013-02-18 20:21:00,34.0,12.0,-100.00,SSW,207,11.0,18.0,40,0.00,,,0.00,19.000000,,2013-02-19 04:21:00,
2013-02-18 20:54:00,36.0,19.0,-100.00,SSW,203,8.0,20.0,49,0.00,,,0.00,0.000000,,2013-02-19 04:54:00,
2013-02-18 21:02:00,36.0,19.0,-100.00,SSW,203,8.0,20.0,49,0.00,,,0.00,0.000000,,2013-02-19 05:02:00,
2013-02-18 21:12:00,36.0,19.0,-100.00,SSW,203,8.0,20.0,49,0.00,,,0.00,0.000000,,2013-02-19 05:12:00,
2013-02-18 21:22:00,36.0,19.0,-100.00,SSW,203,8.0,20.0,49,0.00,,,0.00,0.000000,,2013-02-19 05:22:00,
2013-02-18 21:52:00,32.0,12.0,-100.00,SSW,200,12.0,20.0,43,0.00,,,0.00,0.000000,,2013-02-19 05:52:00,
2013-02-18 22:02:00,32.0,12.0,-100.00,SSW,200,12.0,20.0,43,0.00,,,0.00,0.000000,,2013-02-19 06:02:00,
2013-02-18 22:11:00,32.0,12.0,-100.00,SSW,200,12.0,20.0,43,0.00,,,0.00,0.000000,,2013-02-19 06:11:00,
2013-02-18 22:21:00,32.0,12.0,-100.00,SSW,200,12.0,20.0,43,0.00,,,0.00,0.000000,,2013-02-19 06:21:00,
2013-02-18 22:52:00,33.0,17.0,-100.00,SSW,208,10.0,17.0,52,0.00,,,0.00,0.000000,,2013-02-19 06:52:00,
2013-02-18 23:01:00,33.0,17.0,-100.00,SSW,208,10.0,17.0,52,0.00,,,0.00,0.000000,,2013-02-19 07:01:00,
2013-02-18 23:11:00,33.0,17.0,-100.00,SSW,208,10.0,17.0,52,0.00,,,0.00,0.000000,,2013-02-19 07:11:00,
2013-02-18 23:21:00,33.0,17.0,-100.00,SSW,208,10.0,17.0,52,0.00,,,0.00,0.000000,,2013-02-19 07:21:00,
2013-02-18 23:52:00,32.0,14.0,-100.00,South,183,13.0,24.0,46,0.00,,,0.00,0.000000,,2013-02-19 07:52:00,